sensor_id;sensor_type;location;lat;lon;timestamp;P1;durP1;ratioP1;P2;durP2;ratioP2
13641;SDS011;6894;52.196;9.904;2023-04-15T00:02:00;6.37;;;5.07;;
13641;SDS011;6894;52.196;9.904;2023-04-15T00:04:29;5.67;;;5.03;;
13641;SDS011;6894;52.196;9.904;2023-04-15T00:06:57;5.60;;;4.97;;
13641;SDS011;6894;52.196;9.904;2023-04-15T00:09:24;5.10;;;4.53;;
13641;SDS011;6894;52.196;9.904;2023-04-15T00:11:52;5.63;;;4.77;;
13641;SDS011;6894;52.196;9.904;2023-04-15T00:14:19;5.33;;;4.83;;
13641;SDS011;6894;52.196;9.904;2023-04-15T00:16:46;6.33;;;5.50;;
13641;SDS011;6894;52.196;9.904;2023-04-15T00:19:19;5.17;;;4.67;;
13641;SDS011;6894;52.196;9.904;2023-04-15T00:21:45;6.23;;;5.10;;
13641;SDS011;6894;52.196;9.904;2023-04-15T00:24:12;5.47;;;4.93;;
13641;SDS011;6894;52.196;9.904;2023-04-15T00:26:39;6.07;;;5.47;;
13641;SDS011;6894;52.196;9.904;2023-04-15T00:29:07;5.03;;;4.57;;
13641;SDS011;6894;52.196;9.904;2023-04-15T00:31:35;7.20;;;5.23;;
13641;SDS011;6894;52.196;9.904;2023-04-15T00:34:02;5.60;;;5.00;;
13641;SDS011;6894;52.196;9.904;2023-04-15T00:36:29;6.37;;;4.90;;
13641;SDS011;6894;52.196;9.904;2023-04-15T00:38:57;5.40;;;4.90;;
13641;SDS011;6894;52.196;9.904;2023-04-15T00:41:24;8.80;;;5.57;;
13641;SDS011;6894;52.196;9.904;2023-04-15T00:43:51;5.33;;;4.83;;
13641;SDS011;6894;52.196;9.904;2023-04-15T00:46:20;6.67;;;4.77;;
13641;SDS011;6894;52.196;9.904;2023-04-15T00:48:48;6.13;;;5.03;;
13641;SDS011;6894;52.196;9.904;2023-04-15T00:51:16;6.60;;;5.57;;
13641;SDS011;6894;52.196;9.904;2023-04-15T00:53:43;5.07;;;4.57;;
13641;SDS011;6894;52.196;9.904;2023-04-15T00:56:10;6.60;;;5.50;;
13641;SDS011;6894;52.196;9.904;2023-04-15T00:58:37;7.07;;;5.83;;
13641;SDS011;6894;52.196;9.904;2023-04-15T01:01:04;7.37;;;5.77;;
13641;SDS011;6894;52.196;9.904;2023-04-15T01:03:32;7.00;;;5.10;;
13641;SDS011;6894;52.196;9.904;2023-04-15T01:05:59;5.70;;;5.10;;
13641;SDS011;6894;52.196;9.904;2023-04-15T01:08:26;5.20;;;4.70;;
13641;SDS011;6894;52.196;9.904;2023-04-15T01:10:53;6.37;;;5.77;;
13641;SDS011;6894;52.196;9.904;2023-04-15T01:13:21;5.73;;;5.03;;
13641;SDS011;6894;52.196;9.904;2023-04-15T01:15:49;9.20;;;6.10;;
13641;SDS011;6894;52.196;9.904;2023-04-15T01:18:16;6.63;;;5.70;;
13641;SDS011;6894;52.196;9.904;2023-04-15T01:20:45;5.93;;;4.97;;
13641;SDS011;6894;52.196;9.904;2023-04-15T01:23:11;6.00;;;5.40;;
13641;SDS011;6894;52.196;9.904;2023-04-15T01:25:40;6.47;;;5.47;;
13641;SDS011;6894;52.196;9.904;2023-04-15T01:28:09;5.73;;;5.13;;
13641;SDS011;6894;52.196;9.904;2023-04-15T01:30:35;7.43;;;5.60;;
13641;SDS011;6894;52.196;9.904;2023-04-15T01:33:02;7.53;;;6.17;;
13641;SDS011;6894;52.196;9.904;2023-04-15T01:35:29;7.00;;;5.30;;
13641;SDS011;6894;52.196;9.904;2023-04-15T01:37:56;7.10;;;6.10;;
13641;SDS011;6894;52.196;9.904;2023-04-15T01:40:30;6.23;;;5.50;;
13641;SDS011;6894;52.196;9.904;2023-04-15T01:42:58;8.23;;;5.37;;
13641;SDS011;6894;52.196;9.904;2023-04-15T01:45:25;6.87;;;6.17;;
13641;SDS011;6894;52.196;9.904;2023-04-15T01:47:52;5.93;;;5.33;;
13641;SDS011;6894;52.196;9.904;2023-04-15T01:50:18;7.33;;;6.03;;
13641;SDS011;6894;52.196;9.904;2023-04-15T01:52:45;6.03;;;5.43;;
13641;SDS011;6894;52.196;9.904;2023-04-15T01:55:12;8.60;;;6.40;;
13641;SDS011;6894;52.196;9.904;2023-04-15T01:57:40;8.77;;;5.83;;
13641;SDS011;6894;52.196;9.904;2023-04-15T02:00:08;6.50;;;5.70;;
13641;SDS011;6894;52.196;9.904;2023-04-15T02:02:36;6.87;;;5.23;;
13641;SDS011;6894;52.196;9.904;2023-04-15T02:05:03;9.10;;;7.10;;
13641;SDS011;6894;52.196;9.904;2023-04-15T02:07:30;8.03;;;5.90;;
13641;SDS011;6894;52.196;9.904;2023-04-15T02:09:57;9.10;;;6.77;;
13641;SDS011;6894;52.196;9.904;2023-04-15T02:12:24;7.57;;;6.23;;
13641;SDS011;6894;52.196;9.904;2023-04-15T02:14:51;10.93;;;6.97;;
13641;SDS011;6894;52.196;9.904;2023-04-15T02:17:19;7.43;;;6.13;;
13641;SDS011;6894;52.196;9.904;2023-04-15T02:19:46;8.13;;;6.57;;
13641;SDS011;6894;52.196;9.904;2023-04-15T02:22:13;8.07;;;6.70;;
13641;SDS011;6894;52.196;9.904;2023-04-15T02:24:42;11.10;;;8.10;;
13641;SDS011;6894;52.196;9.904;2023-04-15T02:27:10;7.93;;;7.13;;
13641;SDS011;6894;52.196;9.904;2023-04-15T02:29:40;7.63;;;6.47;;
13641;SDS011;6894;52.196;9.904;2023-04-15T02:32:06;7.47;;;6.50;;
13641;SDS011;6894;52.196;9.904;2023-04-15T02:34:34;9.13;;;7.53;;
13641;SDS011;6894;52.196;9.904;2023-04-15T02:37:03;8.83;;;7.57;;
13641;SDS011;6894;52.196;9.904;2023-04-15T02:39:30;11.07;;;8.67;;
13641;SDS011;6894;52.196;9.904;2023-04-15T02:41:56;8.20;;;7.40;;
13641;SDS011;6894;52.196;9.904;2023-04-15T02:44:24;11.40;;;8.37;;
13641;SDS011;6894;52.196;9.904;2023-04-15T02:46:51;9.90;;;7.77;;
13641;SDS011;6894;52.196;9.904;2023-04-15T02:49:18;10.20;;;7.73;;
13641;SDS011;6894;52.196;9.904;2023-04-15T02:51:47;9.97;;;7.77;;
13641;SDS011;6894;52.196;9.904;2023-04-15T02:54:14;11.07;;;8.27;;
13641;SDS011;6894;52.196;9.904;2023-04-15T02:56:41;10.07;;;8.93;;
13641;SDS011;6894;52.196;9.904;2023-04-15T02:59:08;12.43;;;9.97;;
13641;SDS011;6894;52.196;9.904;2023-04-15T03:01:34;11.50;;;9.17;;
13641;SDS011;6894;52.196;9.904;2023-04-15T03:04:01;14.13;;;9.67;;
13641;SDS011;6894;52.196;9.904;2023-04-15T03:06:28;11.87;;;9.47;;
13641;SDS011;6894;52.196;9.904;2023-04-15T03:08:56;12.63;;;10.13;;
13641;SDS011;6894;52.196;9.904;2023-04-15T03:11:24;11.00;;;9.27;;
13641;SDS011;6894;52.196;9.904;2023-04-15T03:13:51;12.13;;;9.77;;
13641;SDS011;6894;52.196;9.904;2023-04-15T03:16:18;11.83;;;10.07;;
13641;SDS011;6894;52.196;9.904;2023-04-15T03:18:45;14.27;;;10.27;;
13641;SDS011;6894;52.196;9.904;2023-04-15T03:21:11;10.27;;;8.83;;
13641;SDS011;6894;52.196;9.904;2023-04-15T03:23:38;13.57;;;9.70;;
13641;SDS011;6894;52.196;9.904;2023-04-15T03:26:06;11.23;;;9.47;;
13641;SDS011;6894;52.196;9.904;2023-04-15T03:28:33;13.40;;;10.87;;
13641;SDS011;6894;52.196;9.904;2023-04-15T03:31:00;11.47;;;9.87;;
13641;SDS011;6894;52.196;9.904;2023-04-15T03:33:26;11.57;;;10.10;;
13641;SDS011;6894;52.196;9.904;2023-04-15T03:35:53;11.17;;;9.40;;
13641;SDS011;6894;52.196;9.904;2023-04-15T03:38:20;15.47;;;11.57;;
13641;SDS011;6894;52.196;9.904;2023-04-15T03:40:47;12.13;;;9.77;;
13641;SDS011;6894;52.196;9.904;2023-04-15T03:43:15;11.40;;;9.90;;
13641;SDS011;6894;52.196;9.904;2023-04-15T03:45:42;10.33;;;9.30;;
13641;SDS011;6894;52.196;9.904;2023-04-15T03:48:08;13.10;;;10.20;;
13641;SDS011;6894;52.196;9.904;2023-04-15T03:50:35;10.53;;;9.43;;
13641;SDS011;6894;52.196;9.904;2023-04-15T03:53:02;12.83;;;10.57;;
13641;SDS011;6894;52.196;9.904;2023-04-15T03:55:29;14.73;;;11.33;;
13641;SDS011;6894;52.196;9.904;2023-04-15T03:57:55;12.63;;;10.63;;
13641;SDS011;6894;52.196;9.904;2023-04-15T04:00:23;12.20;;;10.90;;
13641;SDS011;6894;52.196;9.904;2023-04-15T04:02:50;13.60;;;10.93;;
13641;SDS011;6894;52.196;9.904;2023-04-15T04:05:17;13.00;;;10.60;;
13641;SDS011;6894;52.196;9.904;2023-04-15T04:07:44;15.53;;;11.73;;
13641;SDS011;6894;52.196;9.904;2023-04-15T04:10:11;14.20;;;11.03;;
13641;SDS011;6894;52.196;9.904;2023-04-15T04:12:38;17.87;;;12.83;;
13641;SDS011;6894;52.196;9.904;2023-04-15T04:15:05;14.00;;;10.80;;
13641;SDS011;6894;52.196;9.904;2023-04-15T04:17:34;15.67;;;11.70;;
13641;SDS011;6894;52.196;9.904;2023-04-15T04:20:00;13.27;;;11.43;;
13641;SDS011;6894;52.196;9.904;2023-04-15T04:22:27;17.40;;;13.27;;
13641;SDS011;6894;52.196;9.904;2023-04-15T04:24:54;16.50;;;13.07;;
13641;SDS011;6894;52.196;9.904;2023-04-15T04:27:21;17.70;;;12.40;;
13641;SDS011;6894;52.196;9.904;2023-04-15T04:29:47;15.40;;;12.43;;
13641;SDS011;6894;52.196;9.904;2023-04-15T04:32:14;18.87;;;13.90;;
13641;SDS011;6894;52.196;9.904;2023-04-15T04:34:42;14.83;;;13.23;;
13641;SDS011;6894;52.196;9.904;2023-04-15T04:37:09;21.97;;;14.77;;
13641;SDS011;6894;52.196;9.904;2023-04-15T04:39:36;16.40;;;13.10;;
13641;SDS011;6894;52.196;9.904;2023-04-15T04:42:03;20.80;;;15.03;;
13641;SDS011;6894;52.196;9.904;2023-04-15T04:44:29;19.43;;;14.03;;
13641;SDS011;6894;52.196;9.904;2023-04-15T04:46:56;20.90;;;15.43;;
13641;SDS011;6894;52.196;9.904;2023-04-15T04:49:23;19.23;;;15.27;;
13641;SDS011;6894;52.196;9.904;2023-04-15T04:51:51;24.97;;;16.17;;
13641;SDS011;6894;52.196;9.904;2023-04-15T04:54:18;22.77;;;18.03;;
13641;SDS011;6894;52.196;9.904;2023-04-15T04:56:45;23.83;;;17.13;;
13641;SDS011;6894;52.196;9.904;2023-04-15T04:59:12;20.63;;;15.27;;
13641;SDS011;6894;52.196;9.904;2023-04-15T05:01:38;24.33;;;16.53;;
13641;SDS011;6894;52.196;9.904;2023-04-15T05:04:06;21.90;;;16.83;;
13641;SDS011;6894;52.196;9.904;2023-04-15T05:06:32;26.47;;;17.63;;
13641;SDS011;6894;52.196;9.904;2023-04-15T05:09:02;24.57;;;16.60;;
13641;SDS011;6894;52.196;9.904;2023-04-15T05:11:29;24.77;;;17.23;;
13641;SDS011;6894;52.196;9.904;2023-04-15T05:13:55;19.73;;;16.20;;
13641;SDS011;6894;52.196;9.904;2023-04-15T05:16:23;24.23;;;17.33;;
13641;SDS011;6894;52.196;9.904;2023-04-15T05:18:50;22.50;;;17.67;;
13641;SDS011;6894;52.196;9.904;2023-04-15T05:21:17;26.40;;;17.53;;
13641;SDS011;6894;52.196;9.904;2023-04-15T05:23:44;22.80;;;17.23;;
13641;SDS011;6894;52.196;9.904;2023-04-15T05:26:12;27.57;;;17.30;;
13641;SDS011;6894;52.196;9.904;2023-04-15T05:28:39;25.00;;;17.57;;
13641;SDS011;6894;52.196;9.904;2023-04-15T05:31:06;25.50;;;17.23;;
13641;SDS011;6894;52.196;9.904;2023-04-15T05:33:33;24.03;;;17.90;;
13641;SDS011;6894;52.196;9.904;2023-04-15T05:36:00;27.03;;;17.53;;
13641;SDS011;6894;52.196;9.904;2023-04-15T05:38:26;20.60;;;16.27;;
13641;SDS011;6894;52.196;9.904;2023-04-15T05:40:53;26.17;;;16.53;;
13641;SDS011;6894;52.196;9.904;2023-04-15T05:43:21;22.73;;;16.60;;
13641;SDS011;6894;52.196;9.904;2023-04-15T05:45:48;25.80;;;16.43;;
13641;SDS011;6894;52.196;9.904;2023-04-15T05:48:15;20.40;;;16.23;;
13641;SDS011;6894;52.196;9.904;2023-04-15T05:50:42;27.83;;;17.10;;
13641;SDS011;6894;52.196;9.904;2023-04-15T05:53:09;21.33;;;16.20;;
13641;SDS011;6894;52.196;9.904;2023-04-15T05:55:35;25.50;;;16.70;;
13641;SDS011;6894;52.196;9.904;2023-04-15T05:58:02;18.90;;;16.53;;
13641;SDS011;6894;52.196;9.904;2023-04-15T06:00:30;27.43;;;16.73;;
13641;SDS011;6894;52.196;9.904;2023-04-15T06:03:00;20.77;;;15.77;;
13641;SDS011;6894;52.196;9.904;2023-04-15T06:05:27;19.63;;;15.00;;
13641;SDS011;6894;52.196;9.904;2023-04-15T06:07:54;20.87;;;15.87;;
13641;SDS011;6894;52.196;9.904;2023-04-15T06:10:20;23.20;;;15.47;;
13641;SDS011;6894;52.196;9.904;2023-04-15T06:12:47;16.47;;;14.37;;
13641;SDS011;6894;52.196;9.904;2023-04-15T06:15:14;20.73;;;15.83;;
13641;SDS011;6894;52.196;9.904;2023-04-15T06:17:42;16.97;;;14.00;;
13641;SDS011;6894;52.196;9.904;2023-04-15T06:20:09;20.63;;;14.63;;
13641;SDS011;6894;52.196;9.904;2023-04-15T06:22:37;16.73;;;13.73;;
13641;SDS011;6894;52.196;9.904;2023-04-15T06:25:04;20.53;;;14.07;;
13641;SDS011;6894;52.196;9.904;2023-04-15T06:27:32;16.30;;;13.50;;
13641;SDS011;6894;52.196;9.904;2023-04-15T06:29:58;18.90;;;13.40;;
13641;SDS011;6894;52.196;9.904;2023-04-15T06:32:25;16.57;;;12.80;;
13641;SDS011;6894;52.196;9.904;2023-04-15T06:34:53;19.87;;;14.63;;
13641;SDS011;6894;52.196;9.904;2023-04-15T06:37:20;15.10;;;12.97;;
13641;SDS011;6894;52.196;9.904;2023-04-15T06:39:47;16.00;;;12.20;;
13641;SDS011;6894;52.196;9.904;2023-04-15T06:42:14;12.03;;;10.77;;
13641;SDS011;6894;52.196;9.904;2023-04-15T06:44:41;17.53;;;12.50;;
13641;SDS011;6894;52.196;9.904;2023-04-15T06:47:08;11.97;;;10.77;;
13641;SDS011;6894;52.196;9.904;2023-04-15T06:49:37;13.90;;;11.83;;
13641;SDS011;6894;52.196;9.904;2023-04-15T06:52:05;11.87;;;10.17;;
13641;SDS011;6894;52.196;9.904;2023-04-15T06:54:32;14.17;;;11.20;;
13641;SDS011;6894;52.196;9.904;2023-04-15T06:56:59;11.53;;;10.33;;
13641;SDS011;6894;52.196;9.904;2023-04-15T06:59:26;12.40;;;10.57;;
13641;SDS011;6894;52.196;9.904;2023-04-15T07:01:53;11.20;;;10.10;;
13641;SDS011;6894;52.196;9.904;2023-04-15T07:04:20;10.87;;;9.77;;
13641;SDS011;6894;52.196;9.904;2023-04-15T07:06:47;11.57;;;10.37;;
13641;SDS011;6894;52.196;9.904;2023-04-15T07:09:15;11.57;;;9.90;;
13641;SDS011;6894;52.196;9.904;2023-04-15T07:11:42;11.10;;;9.90;;
13641;SDS011;6894;52.196;9.904;2023-04-15T07:14:08;11.73;;;9.80;;
13641;SDS011;6894;52.196;9.904;2023-04-15T07:16:35;9.97;;;8.93;;
13641;SDS011;6894;52.196;9.904;2023-04-15T07:19:02;12.23;;;10.03;;
13641;SDS011;6894;52.196;9.904;2023-04-15T07:21:29;10.90;;;9.30;;
13641;SDS011;6894;52.196;9.904;2023-04-15T07:23:56;11.97;;;9.53;;
13641;SDS011;6894;52.196;9.904;2023-04-15T07:26:24;10.80;;;9.57;;
13641;SDS011;6894;52.196;9.904;2023-04-15T07:28:51;11.50;;;9.83;;
13641;SDS011;6894;52.196;9.904;2023-04-15T07:31:18;10.17;;;9.17;;
13641;SDS011;6894;52.196;9.904;2023-04-15T07:33:45;14.70;;;10.97;;
13641;SDS011;6894;52.196;9.904;2023-04-15T07:36:12;11.10;;;9.97;;
13641;SDS011;6894;52.196;9.904;2023-04-15T07:38:39;13.53;;;10.63;;
13641;SDS011;6894;52.196;9.904;2023-04-15T07:41:07;11.90;;;10.73;;
13641;SDS011;6894;52.196;9.904;2023-04-15T07:43:35;12.27;;;10.97;;
13641;SDS011;6894;52.196;9.904;2023-04-15T07:46:03;12.03;;;10.83;;
13641;SDS011;6894;52.196;9.904;2023-04-15T07:48:30;11.97;;;10.37;;
13641;SDS011;6894;52.196;9.904;2023-04-15T07:50:58;10.63;;;9.60;;
13641;SDS011;6894;52.196;9.904;2023-04-15T07:53:26;11.23;;;9.60;;
13641;SDS011;6894;52.196;9.904;2023-04-15T07:55:53;9.87;;;8.87;;
13641;SDS011;6894;52.196;9.904;2023-04-15T07:58:20;12.70;;;10.20;;
13641;SDS011;6894;52.196;9.904;2023-04-15T08:00:48;10.17;;;8.83;;
13641;SDS011;6894;52.196;9.904;2023-04-15T08:03:15;10.77;;;9.67;;
13641;SDS011;6894;52.196;9.904;2023-04-15T08:05:41;9.70;;;8.80;;
13641;SDS011;6894;52.196;9.904;2023-04-15T08:08:08;11.17;;;10.07;;
13641;SDS011;6894;52.196;9.904;2023-04-15T08:10:35;9.40;;;8.50;;
13641;SDS011;6894;52.196;9.904;2023-04-15T08:13:03;12.30;;;10.03;;
13641;SDS011;6894;52.196;9.904;2023-04-15T08:15:30;10.30;;;9.33;;
13641;SDS011;6894;52.196;9.904;2023-04-15T08:17:58;10.37;;;9.33;;
13641;SDS011;6894;52.196;9.904;2023-04-15T08:20:25;9.23;;;8.33;;
13641;SDS011;6894;52.196;9.904;2023-04-15T08:22:52;9.40;;;8.33;;
13641;SDS011;6894;52.196;9.904;2023-04-15T08:25:19;9.47;;;8.57;;
13641;SDS011;6894;52.196;9.904;2023-04-15T08:27:46;9.73;;;7.70;;
13641;SDS011;6894;52.196;9.904;2023-04-15T08:30:13;8.83;;;8.00;;
13641;SDS011;6894;52.196;9.904;2023-04-15T08:32:40;9.00;;;7.20;;
13641;SDS011;6894;52.196;9.904;2023-04-15T08:35:09;8.53;;;7.73;;
13641;SDS011;6894;52.196;9.904;2023-04-15T08:37:36;8.50;;;7.63;;
13641;SDS011;6894;52.196;9.904;2023-04-15T08:40:03;8.00;;;7.17;;
13641;SDS011;6894;52.196;9.904;2023-04-15T08:42:30;7.87;;;6.83;;
13641;SDS011;6894;52.196;9.904;2023-04-15T08:45:02;6.70;;;6.10;;
13641;SDS011;6894;52.196;9.904;2023-04-15T08:47:30;7.20;;;6.37;;
13641;SDS011;6894;52.196;9.904;2023-04-15T08:49:58;6.77;;;6.17;;
13641;SDS011;6894;52.196;9.904;2023-04-15T08:52:29;7.63;;;6.87;;
13641;SDS011;6894;52.196;9.904;2023-04-15T08:54:57;6.30;;;5.70;;
13641;SDS011;6894;52.196;9.904;2023-04-15T08:57:25;7.50;;;6.67;;
13641;SDS011;6894;52.196;9.904;2023-04-15T08:59:53;6.90;;;6.30;;
13641;SDS011;6894;52.196;9.904;2023-04-15T09:02:21;6.57;;;5.97;;
13641;SDS011;6894;52.196;9.904;2023-04-15T09:04:49;5.90;;;5.30;;
13641;SDS011;6894;52.196;9.904;2023-04-15T09:07:16;6.77;;;6.17;;
13641;SDS011;6894;52.196;9.904;2023-04-15T09:09:44;5.73;;;5.23;;
13641;SDS011;6894;52.196;9.904;2023-04-15T09:12:11;4.93;;;4.43;;
13641;SDS011;6894;52.196;9.904;2023-04-15T09:14:38;5.97;;;5.47;;
13641;SDS011;6894;52.196;9.904;2023-04-15T09:17:07;5.40;;;4.90;;
13641;SDS011;6894;52.196;9.904;2023-04-15T09:19:35;5.87;;;5.07;;
13641;SDS011;6894;52.196;9.904;2023-04-15T09:22:02;4.60;;;4.20;;
13641;SDS011;6894;52.196;9.904;2023-04-15T09:24:33;5.43;;;4.93;;
13641;SDS011;6894;52.196;9.904;2023-04-15T09:27:04;4.90;;;4.40;;
13641;SDS011;6894;52.196;9.904;2023-04-15T09:29:31;5.10;;;4.20;;
13641;SDS011;6894;52.196;9.904;2023-04-15T09:32:08;4.20;;;3.80;;
13641;SDS011;6894;52.196;9.904;2023-04-15T09:34:36;5.17;;;4.50;;
13641;SDS011;6894;52.196;9.904;2023-04-15T09:37:02;4.33;;;3.93;;
13641;SDS011;6894;52.196;9.904;2023-04-15T09:39:44;5.60;;;4.07;;
13641;SDS011;6894;52.196;9.904;2023-04-15T09:42:13;4.70;;;4.27;;
13641;SDS011;6894;52.196;9.904;2023-04-15T09:44:41;4.60;;;4.20;;
13641;SDS011;6894;52.196;9.904;2023-04-15T09:47:08;4.10;;;3.70;;
13641;SDS011;6894;52.196;9.904;2023-04-15T09:49:54;5.30;;;3.87;;
13641;SDS011;6894;52.196;9.904;2023-04-15T09:52:22;3.97;;;3.57;;
13641;SDS011;6894;52.196;9.904;2023-04-15T09:54:49;5.30;;;4.73;;
13641;SDS011;6894;52.196;9.904;2023-04-15T09:57:20;4.33;;;3.93;;
13641;SDS011;6894;52.196;9.904;2023-04-15T09:59:47;4.90;;;4.00;;
13641;SDS011;6894;52.196;9.904;2023-04-15T10:02:14;4.93;;;4.20;;
13641;SDS011;6894;52.196;9.904;2023-04-15T10:04:43;5.90;;;4.43;;
13641;SDS011;6894;52.196;9.904;2023-04-15T10:07:13;5.03;;;4.53;;
13641;SDS011;6894;52.196;9.904;2023-04-15T10:09:42;6.53;;;4.90;;
13641;SDS011;6894;52.196;9.904;2023-04-15T10:12:11;6.23;;;5.40;;
13641;SDS011;6894;52.196;9.904;2023-04-15T10:14:39;6.87;;;5.77;;
13641;SDS011;6894;52.196;9.904;2023-04-15T10:17:09;6.87;;;5.90;;
13641;SDS011;6894;52.196;9.904;2023-04-15T10:19:37;7.50;;;6.53;;
13641;SDS011;6894;52.196;9.904;2023-04-15T10:22:04;6.97;;;6.07;;
13641;SDS011;6894;52.196;9.904;2023-04-15T10:24:32;9.30;;;6.43;;
13641;SDS011;6894;52.196;9.904;2023-04-15T10:27:00;8.50;;;6.10;;
13641;SDS011;6894;52.196;9.904;2023-04-15T10:29:29;8.73;;;6.83;;
13641;SDS011;6894;52.196;9.904;2023-04-15T10:31:57;9.37;;;6.40;;
13641;SDS011;6894;52.196;9.904;2023-04-15T10:34:25;8.33;;;6.87;;
13641;SDS011;6894;52.196;9.904;2023-04-15T10:36:54;7.70;;;6.13;;
13641;SDS011;6894;52.196;9.904;2023-04-15T10:39:40;9.17;;;7.10;;
13641;SDS011;6894;52.196;9.904;2023-04-15T10:42:09;9.27;;;8.07;;
13641;SDS011;6894;52.196;9.904;2023-04-15T10:44:37;10.73;;;7.40;;
13641;SDS011;6894;52.196;9.904;2023-04-15T10:47:11;10.03;;;8.17;;
13641;SDS011;6894;52.196;9.904;2023-04-15T10:49:43;11.93;;;8.00;;
13641;SDS011;6894;52.196;9.904;2023-04-15T10:52:12;10.53;;;8.97;;
13641;SDS011;6894;52.196;9.904;2023-04-15T10:54:40;13.23;;;9.67;;
13641;SDS011;6894;52.196;9.904;2023-04-15T10:57:08;10.33;;;9.20;;
13641;SDS011;6894;52.196;9.904;2023-04-15T11:02:38;11.80;;;8.80;;
13641;SDS011;6894;52.196;9.904;2023-04-15T11:05:07;12.53;;;9.40;;
13641;SDS011;6894;52.196;9.904;2023-04-15T11:07:35;14.47;;;9.80;;
13641;SDS011;6894;52.196;9.904;2023-04-15T11:10:03;14.10;;;10.70;;
13641;SDS011;6894;52.196;9.904;2023-04-15T11:12:50;15.23;;;10.77;;
13641;SDS011;6894;52.196;9.904;2023-04-15T11:15:24;15.77;;;11.77;;
13641;SDS011;6894;52.196;9.904;2023-04-15T11:17:55;17.53;;;11.10;;
13641;SDS011;6894;52.196;9.904;2023-04-15T11:20:22;26.97;;;13.53;;
13641;SDS011;6894;52.196;9.904;2023-04-15T11:22:50;16.27;;;11.90;;
13641;SDS011;6894;52.196;9.904;2023-04-15T11:25:22;21.73;;;13.13;;
13641;SDS011;6894;52.196;9.904;2023-04-15T11:27:49;24.27;;;15.50;;
13641;SDS011;6894;52.196;9.904;2023-04-15T11:30:17;24.33;;;15.03;;
13641;SDS011;6894;52.196;9.904;2023-04-15T11:32:46;22.37;;;15.10;;
13641;SDS011;6894;52.196;9.904;2023-04-15T11:35:14;28.93;;;18.07;;
13641;SDS011;6894;52.196;9.904;2023-04-15T11:37:41;21.00;;;15.53;;
13641;SDS011;6894;52.196;9.904;2023-04-15T11:40:08;25.97;;;15.77;;
13641;SDS011;6894;52.196;9.904;2023-04-15T11:42:35;25.00;;;16.27;;
13641;SDS011;6894;52.196;9.904;2023-04-15T11:45:05;24.93;;;15.63;;
13641;SDS011;6894;52.196;9.904;2023-04-15T11:47:33;25.57;;;16.33;;
13641;SDS011;6894;52.196;9.904;2023-04-15T11:52:53;27.60;;;18.70;;
13641;SDS011;6894;52.196;9.904;2023-04-15T11:55:21;36.93;;;19.60;;
13641;SDS011;6894;52.196;9.904;2023-04-15T11:57:49;30.70;;;19.60;;
13641;SDS011;6894;52.196;9.904;2023-04-15T12:00:16;36.13;;;21.70;;
13641;SDS011;6894;52.196;9.904;2023-04-15T12:02:44;37.63;;;21.33;;
13641;SDS011;6894;52.196;9.904;2023-04-15T12:05:11;36.47;;;20.77;;
13641;SDS011;6894;52.196;9.904;2023-04-15T12:07:58;35.23;;;20.47;;
13641;SDS011;6894;52.196;9.904;2023-04-15T12:10:25;37.67;;;21.30;;
13641;SDS011;6894;52.196;9.904;2023-04-15T12:12:52;39.13;;;23.10;;
13641;SDS011;6894;52.196;9.904;2023-04-15T12:15:20;43.17;;;23.27;;
13641;SDS011;6894;52.196;9.904;2023-04-15T12:17:48;37.80;;;23.50;;
13641;SDS011;6894;52.196;9.904;2023-04-15T12:20:20;36.03;;;22.17;;
13641;SDS011;6894;52.196;9.904;2023-04-15T12:22:50;53.20;;;27.57;;
13641;SDS011;6894;52.196;9.904;2023-04-15T12:25:18;50.27;;;29.73;;
13641;SDS011;6894;52.196;9.904;2023-04-15T12:27:57;61.03;;;32.47;;
13641;SDS011;6894;52.196;9.904;2023-04-15T12:30:24;48.37;;;29.80;;
13641;SDS011;6894;52.196;9.904;2023-04-15T12:32:51;69.60;;;35.17;;
13641;SDS011;6894;52.196;9.904;2023-04-15T12:35:18;51.23;;;28.97;;
13641;SDS011;6894;52.196;9.904;2023-04-15T12:37:45;67.83;;;32.03;;
13641;SDS011;6894;52.196;9.904;2023-04-15T12:40:12;54.63;;;32.27;;
13641;SDS011;6894;52.196;9.904;2023-04-15T12:42:40;54.23;;;31.43;;
13641;SDS011;6894;52.196;9.904;2023-04-15T12:45:07;64.17;;;32.33;;
13641;SDS011;6894;52.196;9.904;2023-04-15T12:47:34;61.70;;;34.00;;
13641;SDS011;6894;52.196;9.904;2023-04-15T12:50:01;67.37;;;35.57;;
13641;SDS011;6894;52.196;9.904;2023-04-15T12:52:28;64.50;;;36.57;;
13641;SDS011;6894;52.196;9.904;2023-04-15T12:54:55;65.93;;;33.77;;
13641;SDS011;6894;52.196;9.904;2023-04-15T12:57:22;54.67;;;34.27;;
13641;SDS011;6894;52.196;9.904;2023-04-15T12:59:50;67.33;;;35.03;;
13641;SDS011;6894;52.196;9.904;2023-04-15T13:02:16;60.67;;;35.90;;
13641;SDS011;6894;52.196;9.904;2023-04-15T13:04:45;61.57;;;35.57;;
13641;SDS011;6894;52.196;9.904;2023-04-15T13:07:11;62.47;;;33.57;;
13641;SDS011;6894;52.196;9.904;2023-04-15T13:09:39;54.87;;;32.73;;
13641;SDS011;6894;52.196;9.904;2023-04-15T13:12:06;59.17;;;32.87;;
13641;SDS011;6894;52.196;9.904;2023-04-15T13:14:33;55.53;;;32.93;;
13641;SDS011;6894;52.196;9.904;2023-04-15T13:17:01;60.67;;;32.63;;
13641;SDS011;6894;52.196;9.904;2023-04-15T13:19:32;48.77;;;31.03;;
13641;SDS011;6894;52.196;9.904;2023-04-15T13:22:00;62.60;;;32.60;;
13641;SDS011;6894;52.196;9.904;2023-04-15T13:24:27;54.77;;;32.13;;
13641;SDS011;6894;52.196;9.904;2023-04-15T13:26:54;53.53;;;32.90;;
13641;SDS011;6894;52.196;9.904;2023-04-15T13:29:23;49.73;;;29.07;;
13641;SDS011;6894;52.196;9.904;2023-04-15T13:31:49;49.40;;;29.93;;
13641;SDS011;6894;52.196;9.904;2023-04-15T13:34:18;51.57;;;29.57;;
13641;SDS011;6894;52.196;9.904;2023-04-15T13:36:44;52.10;;;30.70;;
13641;SDS011;6894;52.196;9.904;2023-04-15T13:39:11;49.00;;;28.13;;
13641;SDS011;6894;52.196;9.904;2023-04-15T13:41:38;43.10;;;27.37;;
13641;SDS011;6894;52.196;9.904;2023-04-15T13:44:05;41.30;;;27.07;;
13641;SDS011;6894;52.196;9.904;2023-04-15T13:46:32;43.57;;;27.63;;
13641;SDS011;6894;52.196;9.904;2023-04-15T13:48:59;41.93;;;26.93;;
13641;SDS011;6894;52.196;9.904;2023-04-15T13:51:27;42.50;;;26.57;;
13641;SDS011;6894;52.196;9.904;2023-04-15T13:53:53;42.50;;;26.63;;
13641;SDS011;6894;52.196;9.904;2023-04-15T13:56:22;39.13;;;25.37;;
13641;SDS011;6894;52.196;9.904;2023-04-15T13:58:49;42.60;;;25.80;;
13641;SDS011;6894;52.196;9.904;2023-04-15T14:01:18;38.20;;;24.93;;
13641;SDS011;6894;52.196;9.904;2023-04-15T14:03:45;41.07;;;27.13;;
13641;SDS011;6894;52.196;9.904;2023-04-15T14:06:12;40.87;;;26.23;;
13641;SDS011;6894;52.196;9.904;2023-04-15T14:08:40;37.20;;;24.70;;
13641;SDS011;6894;52.196;9.904;2023-04-15T14:11:07;40.77;;;25.53;;
13641;SDS011;6894;52.196;9.904;2023-04-15T14:13:34;36.77;;;24.87;;
13641;SDS011;6894;52.196;9.904;2023-04-15T14:16:01;38.87;;;24.73;;
13641;SDS011;6894;52.196;9.904;2023-04-15T14:18:27;36.17;;;23.77;;
13641;SDS011;6894;52.196;9.904;2023-04-15T14:20:55;38.23;;;25.30;;
13641;SDS011;6894;52.196;9.904;2023-04-15T14:23:22;33.20;;;23.00;;
13641;SDS011;6894;52.196;9.904;2023-04-15T14:25:50;36.20;;;24.87;;
13641;SDS011;6894;52.196;9.904;2023-04-15T14:28:18;31.77;;;22.87;;
13641;SDS011;6894;52.196;9.904;2023-04-15T14:30:45;32.17;;;22.97;;
13641;SDS011;6894;52.196;9.904;2023-04-15T14:33:11;34.37;;;23.37;;
13641;SDS011;6894;52.196;9.904;2023-04-15T14:35:38;31.77;;;22.80;;
13641;SDS011;6894;52.196;9.904;2023-04-15T14:38:05;35.70;;;23.97;;
13641;SDS011;6894;52.196;9.904;2023-04-15T14:40:34;33.33;;;23.57;;
13641;SDS011;6894;52.196;9.904;2023-04-15T14:43:02;35.80;;;24.63;;
13641;SDS011;6894;52.196;9.904;2023-04-15T14:45:29;32.93;;;22.90;;
13641;SDS011;6894;52.196;9.904;2023-04-15T14:47:56;31.83;;;22.00;;
13641;SDS011;6894;52.196;9.904;2023-04-15T14:50:23;30.23;;;22.77;;
13641;SDS011;6894;52.196;9.904;2023-04-15T14:52:50;29.07;;;22.00;;
13641;SDS011;6894;52.196;9.904;2023-04-15T14:55:17;31.30;;;22.10;;